sensor_id;sensor_type;location;lat;lon;timestamp;pressure;altitude;pressure_sealevel;temperature;humidity
67803;BME280;54601;51.378;-1.342;2022-08-03T00:01:40;100072.85;;;25.02;37.54
67803;BME280;54601;51.378;-1.342;2022-08-03T00:04:05;100070.54;;;24.95;37.58
67803;BME280;54601;51.378;-1.342;2022-08-03T00:06:30;100067.04;;;25.28;37.46
67803;BME280;54601;51.378;-1.342;2022-08-03T00:08:56;100066.95;;;24.86;37.72
67803;BME280;54601;51.378;-1.342;2022-08-03T00:11:21;100063.61;;;24.95;37.55
67803;BME280;54601;51.378;-1.342;2022-08-03T00:13:47;100060.44;;;24.99;37.51
67803;BME280;54601;51.378;-1.342;2022-08-03T00:16:13;100060.97;;;24.86;37.70
67803;BME280;54601;51.378;-1.342;2022-08-03T00:18:38;100061.60;;;25.24;37.76
67803;BME280;54601;51.378;-1.342;2022-08-03T00:21:04;100064.14;;;24.75;37.82
67803;BME280;54601;51.378;-1.342;2022-08-03T00:23:30;100062.34;;;25.04;37.71
67803;BME280;54601;51.378;-1.342;2022-08-03T00:25:55;100058.02;;;25.11;37.92
67803;BME280;54601;51.378;-1.342;2022-08-03T00:28:21;100059.72;;;24.72;37.79
67803;BME280;54601;51.378;-1.342;2022-08-03T00:30:46;100061.96;;;25.02;37.64
67803;BME280;54601;51.378;-1.342;2022-08-03T00:33:12;100065.15;;;24.70;37.79
67803;BME280;54601;51.378;-1.342;2022-08-03T00:35:38;100060.66;;;25.24;37.64
67803;BME280;54601;51.378;-1.342;2022-08-03T00:38:04;100057.48;;;24.79;37.65
67803;BME280;54601;51.378;-1.342;2022-08-03T00:40:29;100054.62;;;24.99;37.66
67803;BME280;54601;51.378;-1.342;2022-08-03T00:42:57;100058.06;;;24.77;37.64
67803;BME280;54601;51.378;-1.342;2022-08-03T00:45:22;100058.00;;;24.76;37.64
67803;BME280;54601;51.378;-1.342;2022-08-03T00:47:47;100060.60;;;25.11;37.76
67803;BME280;54601;51.378;-1.342;2022-08-03T00:50:12;100060.65;;;24.86;37.49
67803;BME280;54601;51.378;-1.342;2022-08-03T00:52:38;100062.58;;;24.75;37.57
67803;BME280;54601;51.378;-1.342;2022-08-03T00:55:03;100059.70;;;24.74;37.67
67803;BME280;54601;51.378;-1.342;2022-08-03T00:57:29;100055.82;;;25.18;37.59
67803;BME280;54601;51.378;-1.342;2022-08-03T00:59:55;100053.16;;;24.74;37.58
67803;BME280;54601;51.378;-1.342;2022-08-03T01:02:20;100047.56;;;25.24;37.49
67803;BME280;54601;51.378;-1.342;2022-08-03T01:04:46;100049.24;;;24.64;37.76
67803;BME280;54601;51.378;-1.342;2022-08-03T01:07:16;100047.04;;;24.66;37.71
67803;BME280;54601;51.378;-1.342;2022-08-03T01:09:44;100045.88;;;24.91;37.68
67803;BME280;54601;51.378;-1.342;2022-08-03T01:12:09;100038.23;;;24.89;37.66
67803;BME280;54601;51.378;-1.342;2022-08-03T01:14:33;100036.83;;;24.84;37.76
67803;BME280;54601;51.378;-1.342;2022-08-03T01:16:56;100038.67;;;24.74;37.51
67803;BME280;54601;51.378;-1.342;2022-08-03T01:19:31;100032.34;;;24.66;37.66
67803;BME280;54601;51.378;-1.342;2022-08-03T01:21:53;100034.21;;;24.79;37.76
67803;BME280;54601;51.378;-1.342;2022-08-03T01:24:22;100032.90;;;25.21;37.45
67803;BME280;54601;51.378;-1.342;2022-08-03T01:26:47;100029.45;;;24.68;37.55
67803;BME280;54601;51.378;-1.342;2022-08-03T01:29:10;100022.56;;;24.79;37.73
67803;BME280;54601;51.378;-1.342;2022-08-03T01:31:33;100022.21;;;25.11;37.55
67803;BME280;54601;51.378;-1.342;2022-08-03T01:33:58;100022.47;;;24.80;37.74
67803;BME280;54601;51.378;-1.342;2022-08-03T01:36:23;100020.33;;;24.89;37.88
67803;BME280;54601;51.378;-1.342;2022-08-03T01:38:52;100020.50;;;24.83;37.62
67803;BME280;54601;51.378;-1.342;2022-08-03T01:41:14;100021.33;;;24.97;37.74
67803;BME280;54601;51.378;-1.342;2022-08-03T01:43:38;100018.74;;;24.67;37.83
67803;BME280;54601;51.378;-1.342;2022-08-03T01:46:03;100021.54;;;24.64;37.60
67803;BME280;54601;51.378;-1.342;2022-08-03T01:48:28;100020.79;;;24.86;37.85
67803;BME280;54601;51.378;-1.342;2022-08-03T01:50:55;100019.99;;;24.69;37.77
67803;BME280;54601;51.378;-1.342;2022-08-03T01:53:19;100020.01;;;24.44;37.79
67803;BME280;54601;51.378;-1.342;2022-08-03T01:55:46;100015.28;;;24.79;37.64
67803;BME280;54601;51.378;-1.342;2022-08-03T01:58:13;100015.55;;;24.87;37.80
67803;BME280;54601;51.378;-1.342;2022-08-03T02:00:37;100021.88;;;24.98;37.72
67803;BME280;54601;51.378;-1.342;2022-08-03T02:03:03;100017.67;;;24.73;37.67
67803;BME280;54601;51.378;-1.342;2022-08-03T02:05:28;100016.29;;;24.90;37.77
67803;BME280;54601;51.378;-1.342;2022-08-03T02:07:54;100020.50;;;24.75;37.63
67803;BME280;54601;51.378;-1.342;2022-08-03T02:10:20;100015.66;;;24.47;38.04
67803;BME280;54601;51.378;-1.342;2022-08-03T02:12:45;100009.69;;;24.48;38.01
67803;BME280;54601;51.378;-1.342;2022-08-03T02:15:11;100011.04;;;24.80;37.88
67803;BME280;54601;51.378;-1.342;2022-08-03T02:17:36;100011.40;;;24.88;37.73
67803;BME280;54601;51.378;-1.342;2022-08-03T02:20:02;100005.78;;;24.54;37.92
67803;BME280;54601;51.378;-1.342;2022-08-03T02:22:28;100004.19;;;24.31;37.87
67803;BME280;54601;51.378;-1.342;2022-08-03T02:24:53;100005.07;;;24.82;37.84
67803;BME280;54601;51.378;-1.342;2022-08-03T02:27:21;100005.34;;;24.89;37.67
67803;BME280;54601;51.378;-1.342;2022-08-03T02:29:46;99999.02;;;24.84;37.69
67803;BME280;54601;51.378;-1.342;2022-08-03T02:32:11;100001.07;;;24.58;37.87
67803;BME280;54601;51.378;-1.342;2022-08-03T02:34:35;100000.45;;;24.93;37.63
67803;BME280;54601;51.378;-1.342;2022-08-03T02:37:01;99999.03;;;24.60;37.74
67803;BME280;54601;51.378;-1.342;2022-08-03T02:39:27;100001.28;;;24.75;37.82
67803;BME280;54601;51.378;-1.342;2022-08-03T02:41:53;99996.22;;;24.75;37.84
67803;BME280;54601;51.378;-1.342;2022-08-03T02:44:22;99992.53;;;24.66;37.61
67803;BME280;54601;51.378;-1.342;2022-08-03T02:46:44;99994.30;;;24.69;37.58
67803;BME280;54601;51.378;-1.342;2022-08-03T02:49:10;99998.07;;;24.80;37.75
67803;BME280;54601;51.378;-1.342;2022-08-03T02:51:35;99999.91;;;24.88;37.54
67803;BME280;54601;51.378;-1.342;2022-08-03T02:54:02;100000.54;;;24.36;37.74
67803;BME280;54601;51.378;-1.342;2022-08-03T02:56:26;100003.56;;;24.42;37.58
67803;BME280;54601;51.378;-1.342;2022-08-03T02:58:52;100002.65;;;25.01;37.50
67803;BME280;54601;51.378;-1.342;2022-08-03T03:01:19;100000.87;;;24.69;37.84
67803;BME280;54601;51.378;-1.342;2022-08-03T03:03:42;100001.86;;;24.83;37.60
67803;BME280;54601;51.378;-1.342;2022-08-03T03:06:10;99998.92;;;24.48;37.82
67803;BME280;54601;51.378;-1.342;2022-08-03T03:08:34;99996.17;;;24.59;37.63
67803;BME280;54601;51.378;-1.342;2022-08-03T03:11:00;100000.83;;;24.91;37.50
67803;BME280;54601;51.378;-1.342;2022-08-03T03:13:27;99997.67;;;24.85;37.56
67803;BME280;54601;51.378;-1.342;2022-08-03T03:15:51;99996.90;;;24.49;37.75
67803;BME280;54601;51.378;-1.342;2022-08-03T03:18:17;100003.25;;;24.38;37.98
67803;BME280;54601;51.378;-1.342;2022-08-03T03:20:44;100003.04;;;24.80;37.66
67803;BME280;54601;51.378;-1.342;2022-08-03T03:23:08;100002.65;;;24.70;37.77
67803;BME280;54601;51.378;-1.342;2022-08-03T03:25:34;100001.61;;;24.45;37.84
67803;BME280;54601;51.378;-1.342;2022-08-03T03:28:00;100003.90;;;24.80;37.62
67803;BME280;54601;51.378;-1.342;2022-08-03T03:30:25;99997.89;;;24.69;37.83
67803;BME280;54601;51.378;-1.342;2022-08-03T03:32:50;99998.23;;;24.72;37.79
67803;BME280;54601;51.378;-1.342;2022-08-03T03:35:16;100002.09;;;24.74;37.72
67803;BME280;54601;51.378;-1.342;2022-08-03T03:37:42;99996.22;;;24.72;37.68
67803;BME280;54601;51.378;-1.342;2022-08-03T03:40:09;100002.98;;;24.63;37.82
67803;BME280;54601;51.378;-1.342;2022-08-03T03:42:34;100003.80;;;24.71;37.70
67803;BME280;54601;51.378;-1.342;2022-08-03T03:45:02;100003.80;;;24.79;37.57
67803;BME280;54601;51.378;-1.342;2022-08-03T03:47:25;100001.41;;;24.70;37.74
67803;BME280;54601;51.378;-1.342;2022-08-03T03:49:50;99998.27;;;24.64;37.81
67803;BME280;54601;51.378;-1.342;2022-08-03T03:52:16;100001.16;;;24.58;37.95
67803;BME280;54601;51.378;-1.342;2022-08-03T03:54:43;100001.90;;;24.67;37.81
67803;BME280;54601;51.378;-1.342;2022-08-03T03:57:08;100003.69;;;24.54;37.66
67803;BME280;54601;51.378;-1.342;2022-08-03T03:59:36;100005.23;;;24.57;37.58
67803;BME280;54601;51.378;-1.342;2022-08-03T04:01:59;100003.69;;;24.49;37.71
67803;BME280;54601;51.378;-1.342;2022-08-03T04:04:24;99995.47;;;24.73;37.65
67803;BME280;54601;51.378;-1.342;2022-08-03T04:06:50;100003.05;;;24.61;37.24
67803;BME280;54601;51.378;-1.342;2022-08-03T04:09:16;100002.99;;;24.38;37.54
67803;BME280;54601;51.378;-1.342;2022-08-03T04:11:46;99999.09;;;24.44;37.45
67803;BME280;54601;51.378;-1.342;2022-08-03T04:14:10;99999.40;;;24.85;37.52
67803;BME280;54601;51.378;-1.342;2022-08-03T04:16:35;100002.17;;;24.74;37.72
67803;BME280;54601;51.378;-1.342;2022-08-03T04:19:04;100002.21;;;24.83;37.54
67803;BME280;54601;51.378;-1.342;2022-08-03T04:21:24;100002.54;;;24.47;37.71
67803;BME280;54601;51.378;-1.342;2022-08-03T04:23:53;100001.82;;;24.73;37.40
67803;BME280;54601;51.378;-1.342;2022-08-03T04:26:19;100004.82;;;24.63;37.80
67803;BME280;54601;51.378;-1.342;2022-08-03T04:28:44;100001.59;;;24.66;37.74
67803;BME280;54601;51.378;-1.342;2022-08-03T04:31:07;100001.28;;;24.61;37.90
67803;BME280;54601;51.378;-1.342;2022-08-03T04:33:34;100001.51;;;24.54;38.03
67803;BME280;54601;51.378;-1.342;2022-08-03T04:36:00;100002.53;;;24.20;38.25
67803;BME280;54601;51.378;-1.342;2022-08-03T04:38:24;99997.68;;;24.40;38.26
67803;BME280;54601;51.378;-1.342;2022-08-03T04:40:49;100000.79;;;24.67;37.75
67803;BME280;54601;51.378;-1.342;2022-08-03T04:43:16;99997.70;;;24.46;38.17
67803;BME280;54601;51.378;-1.342;2022-08-03T04:45:41;99998.15;;;24.47;38.13
67803;BME280;54601;51.378;-1.342;2022-08-03T04:48:06;100001.44;;;24.54;38.04
67803;BME280;54601;51.378;-1.342;2022-08-03T04:50:32;99998.71;;;24.47;38.11
67803;BME280;54601;51.378;-1.342;2022-08-03T04:52:58;99998.10;;;24.46;38.07
67803;BME280;54601;51.378;-1.342;2022-08-03T04:55:25;100001.23;;;24.48;38.11
67803;BME280;54601;51.378;-1.342;2022-08-03T04:57:48;100002.83;;;24.47;38.11
67803;BME280;54601;51.378;-1.342;2022-08-03T05:00:15;100004.07;;;24.57;37.94
67803;BME280;54601;51.378;-1.342;2022-08-03T05:02:40;100000.15;;;24.38;38.31
67803;BME280;54601;51.378;-1.342;2022-08-03T05:05:06;100001.54;;;24.35;38.36
67803;BME280;54601;51.378;-1.342;2022-08-03T05:07:31;99999.73;;;24.53;38.04
67803;BME280;54601;51.378;-1.342;2022-08-03T05:09:57;99997.56;;;24.60;37.92
67803;BME280;54601;51.378;-1.342;2022-08-03T05:12:23;99999.56;;;24.57;37.98
67803;BME280;54601;51.378;-1.342;2022-08-03T05:14:48;99999.91;;;24.67;37.91
67803;BME280;54601;51.378;-1.342;2022-08-03T05:17:14;99997.67;;;24.22;38.18
67803;BME280;54601;51.378;-1.342;2022-08-03T05:19:39;99999.63;;;24.50;38.09
67803;BME280;54601;51.378;-1.342;2022-08-03T05:22:05;99999.06;;;24.49;38.17
67803;BME280;54601;51.378;-1.342;2022-08-03T05:24:31;99997.09;;;24.46;38.22
67803;BME280;54601;51.378;-1.342;2022-08-03T05:26:56;99996.89;;;24.44;38.13
67803;BME280;54601;51.378;-1.342;2022-08-03T05:29:22;99997.43;;;24.48;38.15
67803;BME280;54601;51.378;-1.342;2022-08-03T05:31:48;99998.09;;;24.25;38.18
67803;BME280;54601;51.378;-1.342;2022-08-03T05:34:13;100001.54;;;24.37;38.27
67803;BME280;54601;51.378;-1.342;2022-08-03T05:36:39;100002.15;;;24.46;38.17
67803;BME280;54601;51.378;-1.342;2022-08-03T05:39:05;100002.64;;;24.49;38.07
67803;BME280;54601;51.378;-1.342;2022-08-03T05:41:30;100005.83;;;24.40;38.25
67803;BME280;54601;51.378;-1.342;2022-08-03T05:43:56;100010.79;;;24.39;38.23
67803;BME280;54601;51.378;-1.342;2022-08-03T05:46:22;100009.36;;;24.23;38.15
67803;BME280;54601;51.378;-1.342;2022-08-03T05:48:47;100006.48;;;24.44;38.14
67803;BME280;54601;51.378;-1.342;2022-08-03T05:51:13;100004.21;;;24.40;38.19
67803;BME280;54601;51.378;-1.342;2022-08-03T05:53:39;100010.24;;;24.48;38.19
67803;BME280;54601;51.378;-1.342;2022-08-03T05:56:05;100011.81;;;24.40;38.21
67803;BME280;54601;51.378;-1.342;2022-08-03T05:58:30;100013.46;;;24.54;37.96
67803;BME280;54601;51.378;-1.342;2022-08-03T06:00:56;100019.17;;;24.43;38.24
67803;BME280;54601;51.378;-1.342;2022-08-03T06:03:21;100021.92;;;24.49;38.11
67803;BME280;54601;51.378;-1.342;2022-08-03T06:05:47;100024.45;;;24.35;38.37
67803;BME280;54601;51.378;-1.342;2022-08-03T06:08:13;100022.99;;;24.48;38.16
67803;BME280;54601;51.378;-1.342;2022-08-03T06:10:38;100020.92;;;24.44;38.25
67803;BME280;54601;51.378;-1.342;2022-08-03T06:13:04;100020.44;;;24.24;38.27
67803;BME280;54601;51.378;-1.342;2022-08-03T06:15:30;100021.63;;;24.50;38.14
67803;BME280;54601;51.378;-1.342;2022-08-03T06:17:55;100024.41;;;24.45;38.26
67803;BME280;54601;51.378;-1.342;2022-08-03T06:20:21;100024.66;;;24.28;38.47
67803;BME280;54601;51.378;-1.342;2022-08-03T06:22:47;100035.01;;;24.38;38.32
67803;BME280;54601;51.378;-1.342;2022-08-03T06:25:12;100032.59;;;24.47;38.17
67803;BME280;54601;51.378;-1.342;2022-08-03T06:27:38;100034.73;;;24.20;38.21
67803;BME280;54601;51.378;-1.342;2022-08-03T06:30:05;100035.10;;;24.41;38.32
67803;BME280;54601;51.378;-1.342;2022-08-03T06:32:29;100030.25;;;24.34;38.33
67803;BME280;54601;51.378;-1.342;2022-08-03T06:34:55;100028.37;;;24.36;38.29
67803;BME280;54601;51.378;-1.342;2022-08-03T06:37:21;100025.44;;;24.58;38.42
67803;BME280;54601;51.378;-1.342;2022-08-03T06:39:46;100024.06;;;24.30;38.42
67803;BME280;54601;51.378;-1.342;2022-08-03T06:42:12;100029.75;;;24.35;38.37
67803;BME280;54601;51.378;-1.342;2022-08-03T06:44:38;100031.30;;;24.32;38.38
67803;BME280;54601;51.378;-1.342;2022-08-03T06:47:03;100028.88;;;24.55;38.03
67803;BME280;54601;51.378;-1.342;2022-08-03T06:49:29;100034.72;;;24.66;38.38
67803;BME280;54601;51.378;-1.342;2022-08-03T06:51:55;100041.63;;;24.41;38.24
67803;BME280;54601;51.378;-1.342;2022-08-03T06:54:20;100040.36;;;24.34;38.41
67803;BME280;54601;51.378;-1.342;2022-08-03T06:56:46;100039.85;;;24.74;37.80
67803;BME280;54601;51.378;-1.342;2022-08-03T06:59:12;100036.04;;;24.47;38.22
67803;BME280;54601;51.378;-1.342;2022-08-03T07:01:37;100037.47;;;24.35;38.29
67803;BME280;54601;51.378;-1.342;2022-08-03T07:04:03;100038.85;;;24.41;38.22
67803;BME280;54601;51.378;-1.342;2022-08-03T07:06:29;100041.37;;;24.41;38.15
67803;BME280;54601;51.378;-1.342;2022-08-03T07:08:54;100039.39;;;24.52;38.13
67803;BME280;54601;51.378;-1.342;2022-08-03T07:11:20;100038.05;;;24.16;38.38
67803;BME280;54601;51.378;-1.342;2022-08-03T07:13:46;100042.77;;;24.54;38.20
67803;BME280;54601;51.378;-1.342;2022-08-03T07:16:11;100037.35;;;24.45;38.30
67803;BME280;54601;51.378;-1.342;2022-08-03T07:18:37;100040.93;;;24.55;38.38
67803;BME280;54601;51.378;-1.342;2022-08-03T07:21:03;100041.67;;;24.32;38.53
67803;BME280;54601;51.378;-1.342;2022-08-03T07:23:28;100039.26;;;24.43;38.62
67803;BME280;54601;51.378;-1.342;2022-08-03T07:25:54;100040.85;;;24.44;38.60
67803;BME280;54601;51.378;-1.342;2022-08-03T07:28:20;100039.42;;;24.40;38.58
67803;BME280;54601;51.378;-1.342;2022-08-03T07:30:45;100042.01;;;24.53;38.40
67803;BME280;54601;51.378;-1.342;2022-08-03T07:33:11;100044.68;;;24.18;38.57
67803;BME280;54601;51.378;-1.342;2022-08-03T07:35:37;100035.28;;;24.22;38.67
67803;BME280;54601;51.378;-1.342;2022-08-03T07:38:02;100034.85;;;24.42;38.67
67803;BME280;54601;51.378;-1.342;2022-08-03T07:40:28;100034.20;;;24.72;38.30
67803;BME280;54601;51.378;-1.342;2022-08-03T07:42:54;100031.14;;;24.62;38.53
67803;BME280;54601;51.378;-1.342;2022-08-03T07:45:19;100034.11;;;24.51;38.47
67803;BME280;54601;51.378;-1.342;2022-08-03T07:47:45;100031.61;;;24.26;38.97
67803;BME280;54601;51.378;-1.342;2022-08-03T07:50:10;100029.35;;;24.37;38.99
67803;BME280;54601;51.378;-1.342;2022-08-03T07:52:36;100037.70;;;24.32;39.02
67803;BME280;54601;51.378;-1.342;2022-08-03T07:55:02;100040.79;;;24.47;38.81
67803;BME280;54601;51.378;-1.342;2022-08-03T07:57:27;100046.64;;;24.34;39.07
67803;BME280;54601;51.378;-1.342;2022-08-03T07:59:54;100042.10;;;24.41;38.93
67803;BME280;54601;51.378;-1.342;2022-08-03T08:02:19;100043.81;;;24.60;38.71
67803;BME280;54601;51.378;-1.342;2022-08-03T08:04:44;100050.20;;;24.55;38.71
67803;BME280;54601;51.378;-1.342;2022-08-03T08:07:10;100047.21;;;24.34;38.99
67803;BME280;54601;51.378;-1.342;2022-08-03T08:09:36;100043.32;;;24.54;38.69
67803;BME280;54601;51.378;-1.342;2022-08-03T08:12:02;100049.36;;;24.69;38.90
67803;BME280;54601;51.378;-1.342;2022-08-03T08:14:27;100050.95;;;24.34;39.11
67803;BME280;54601;51.378;-1.342;2022-08-03T08:16:53;100051.93;;;24.33;39.09
67803;BME280;54601;51.378;-1.342;2022-08-03T08:19:18;100056.18;;;24.59;38.86
67803;BME280;54601;51.378;-1.342;2022-08-03T08:21:44;100057.69;;;24.51;38.90
67803;BME280;54601;51.378;-1.342;2022-08-03T08:24:10;100058.21;;;24.55;38.88
67803;BME280;54601;51.378;-1.342;2022-08-03T08:26:36;100054.14;;;24.74;38.59
67803;BME280;54601;51.378;-1.342;2022-08-03T08:29:01;100060.23;;;24.75;38.42
67803;BME280;54601;51.378;-1.342;2022-08-03T08:31:27;100060.85;;;24.54;38.82
67803;BME280;54601;51.378;-1.342;2022-08-03T08:33:52;100061.89;;;24.55;38.90
67803;BME280;54601;51.378;-1.342;2022-08-03T08:36:18;100051.36;;;24.35;39.18
67803;BME280;54601;51.378;-1.342;2022-08-03T08:38:44;100048.45;;;24.33;39.27
67803;BME280;54601;51.378;-1.342;2022-08-03T08:41:10;100048.55;;;24.15;39.35
67803;BME280;54601;51.378;-1.342;2022-08-03T08:43:35;100048.64;;;24.36;39.26
67803;BME280;54601;51.378;-1.342;2022-08-03T08:46:01;100046.84;;;24.48;38.97
67803;BME280;54601;51.378;-1.342;2022-08-03T08:48:27;100049.19;;;24.70;38.63
67803;BME280;54601;51.378;-1.342;2022-08-03T08:50:52;100054.36;;;24.70;38.80
67803;BME280;54601;51.378;-1.342;2022-08-03T08:53:19;100056.65;;;24.61;39.03
67803;BME280;54601;51.378;-1.342;2022-08-03T08:55:45;100059.11;;;24.95;38.59
67803;BME280;54601;51.378;-1.342;2022-08-03T08:58:09;100057.39;;;24.82;38.54
67803;BME280;54601;51.378;-1.342;2022-08-03T09:00:34;100051.84;;;24.74;38.63
67803;BME280;54601;51.378;-1.342;2022-08-03T09:03:00;100051.95;;;24.65;38.84
67803;BME280;54601;51.378;-1.342;2022-08-03T09:05:26;100055.27;;;24.56;38.97
67803;BME280;54601;51.378;-1.342;2022-08-03T09:07:51;100053.80;;;24.43;39.03
67803;BME280;54601;51.378;-1.342;2022-08-03T09:10:17;100055.24;;;24.55;38.98
67803;BME280;54601;51.378;-1.342;2022-08-03T09:12:44;100057.77;;;24.97;38.69
67803;BME280;54601;51.378;-1.342;2022-08-03T09:15:17;100059.94;;;24.51;39.24
67803;BME280;54601;51.378;-1.342;2022-08-03T09:17:40;100063.05;;;24.62;38.94
67803;BME280;54601;51.378;-1.342;2022-08-03T09:20:05;100067.19;;;24.60;38.87
67803;BME280;54601;51.378;-1.342;2022-08-03T09:22:25;100069.28;;;24.70;38.75
67803;BME280;54601;51.378;-1.342;2022-08-03T09:24:56;100066.46;;;24.38;39.03
67803;BME280;54601;51.378;-1.342;2022-08-03T09:27:17;100069.18;;;24.49;38.88
67803;BME280;54601;51.378;-1.342;2022-08-03T09:29:47;100066.52;;;24.60;39.17
67803;BME280;54601;51.378;-1.342;2022-08-03T09:32:09;100064.72;;;24.67;38.88
67803;BME280;54601;51.378;-1.342;2022-08-03T09:34:34;100064.24;;;24.58;39.06
67803;BME280;54601;51.378;-1.342;2022-08-03T09:36:59;100064.79;;;24.45;39.18
67803;BME280;54601;51.378;-1.342;2022-08-03T09:39:26;100059.82;;;24.65;38.84
67803;BME280;54601;51.378;-1.342;2022-08-03T09:42:04;100059.38;;;24.59;38.70
67803;BME280;54601;51.378;-1.342;2022-08-03T09:44:16;100060.19;;;24.60;38.72
67803;BME280;54601;51.378;-1.342;2022-08-03T09:46:48;100059.16;;;24.53;38.86
67803;BME280;54601;51.378;-1.342;2022-08-03T09:49:10;100056.41;;;24.64;38.85
67803;BME280;54601;51.378;-1.342;2022-08-03T09:51:33;100058.83;;;24.44;39.01
67803;BME280;54601;51.378;-1.342;2022-08-03T09:53:59;100061.10;;;24.52;39.28
67803;BME280;54601;51.378;-1.342;2022-08-03T09:58:50;100056.15;;;24.76;38.77
67803;BME280;54601;51.378;-1.342;2022-08-03T10:01:16;100054.98;;;24.52;38.61
67803;BME280;54601;51.378;-1.342;2022-08-03T10:03:41;100047.52;;;24.57;38.81
67803;BME280;54601;51.378;-1.342;2022-08-03T10:06:15;100052.55;;;24.73;39.03
67803;BME280;54601;51.378;-1.342;2022-08-03T10:08:32;100054.77;;;24.83;38.64
67803;BME280;54601;51.378;-1.342;2022-08-03T10:10:58;100056.52;;;24.68;38.93
67803;BME280;54601;51.378;-1.342;2022-08-03T10:13:24;100053.64;;;24.58;38.85
67803;BME280;54601;51.378;-1.342;2022-08-03T10:15:49;100052.72;;;24.86;38.72
67803;BME280;54601;51.378;-1.342;2022-08-03T10:18:15;100062.35;;;24.57;38.75
67803;BME280;54601;51.378;-1.342;2022-08-03T10:20:45;100060.64;;;24.96;38.57
67803;BME280;54601;51.378;-1.342;2022-08-03T10:23:07;100058.50;;;24.78;38.40
67803;BME280;54601;51.378;-1.342;2022-08-03T10:25:33;100065.54;;;24.93;38.82
67803;BME280;54601;51.378;-1.342;2022-08-03T10:28:01;100061.23;;;24.80;39.04
67803;BME280;54601;51.378;-1.342;2022-08-03T10:30:27;100067.11;;;24.94;38.59
67803;BME280;54601;51.378;-1.342;2022-08-03T10:32:55;100074.78;;;24.97;38.64
67803;BME280;54601;51.378;-1.342;2022-08-03T10:35:16;100065.00;;;24.92;38.94
67803;BME280;54601;51.378;-1.342;2022-08-03T10:37:42;100069.15;;;24.97;38.50
67803;BME280;54601;51.378;-1.342;2022-08-03T10:40:07;100058.45;;;25.06;38.51
67803;BME280;54601;51.378;-1.342;2022-08-03T10:42:32;100057.19;;;24.59;38.64
67803;BME280;54601;51.378;-1.342;2022-08-03T10:45:04;100062.12;;;24.71;38.27
67803;BME280;54601;51.378;-1.342;2022-08-03T10:47:23;100057.51;;;24.98;38.30
67803;BME280;54601;51.378;-1.342;2022-08-03T10:49:49;100060.18;;;25.21;38.17
67803;BME280;54601;51.378;-1.342;2022-08-03T10:52:14;100056.35;;;25.17;38.44
67803;BME280;54601;51.378;-1.342;2022-08-03T10:54:42;100057.83;;;24.87;38.44
67803;BME280;54601;51.378;-1.342;2022-08-03T10:57:05;100055.32;;;25.08;38.33
67803;BME280;54601;51.378;-1.342;2022-08-03T11:01:57;100057.86;;;25.14;38.48
67803;BME280;54601;51.378;-1.342;2022-08-03T11:04:23;100056.49;;;24.83;38.60
67803;BME280;54601;51.378;-1.342;2022-08-03T11:09:16;100058.25;;;25.05;38.66
67803;BME280;54601;51.378;-1.342;2022-08-03T11:11:40;100056.11;;;24.75;39.10
67803;BME280;54601;51.378;-1.342;2022-08-03T11:14:07;100054.28;;;24.81;38.85
67803;BME280;54601;51.378;-1.342;2022-08-03T11:16:32;100054.25;;;24.56;38.82
67803;BME280;54601;51.378;-1.342;2022-08-03T11:18:58;100053.91;;;24.88;38.49
67803;BME280;54601;51.378;-1.342;2022-08-03T11:23:48;100054.98;;;25.10;38.39
67803;BME280;54601;51.378;-1.342;2022-08-03T11:26:15;100054.46;;;24.96;38.31
67803;BME280;54601;51.378;-1.342;2022-08-03T11:28:41;100051.83;;;24.96;38.42
67803;BME280;54601;51.378;-1.342;2022-08-03T11:33:30;100052.09;;;24.80;38.56
67803;BME280;54601;51.378;-1.342;2022-08-03T11:35:59;100051.19;;;24.72;38.38
67803;BME280;54601;51.378;-1.342;2022-08-03T11:38:22;100055.71;;;25.14;38.42
67803;BME280;54601;51.378;-1.342;2022-08-03T11:40:49;100056.87;;;25.14;38.47
67803;BME280;54601;51.378;-1.342;2022-08-03T11:45:55;100061.82;;;25.22;38.27
67803;BME280;54601;51.378;-1.342;2022-08-03T11:48:13;100063.13;;;25.15;38.43
67803;BME280;54601;51.378;-1.342;2022-08-03T11:50:35;100062.67;;;25.27;38.23
67803;BME280;54601;51.378;-1.342;2022-08-03T11:52:56;100060.77;;;24.86;38.16
67803;BME280;54601;51.378;-1.342;2022-08-03T11:55:21;100060.32;;;25.27;38.11
67803;BME280;54601;51.378;-1.342;2022-08-03T11:57:47;100060.06;;;25.27;38.18
67803;BME280;54601;51.378;-1.342;2022-08-03T12:00:19;100062.48;;;25.35;38.16
67803;BME280;54601;51.378;-1.342;2022-08-03T12:02:38;100058.17;;;24.82;38.35
67803;BME280;54601;51.378;-1.342;2022-08-03T12:05:04;100062.31;;;25.30;38.57
67803;BME280;54601;51.378;-1.342;2022-08-03T12:07:29;100058.48;;;24.93;38.64
67803;BME280;54601;51.378;-1.342;2022-08-03T12:12:21;100058.11;;;25.28;38.60
67803;BME280;54601;51.378;-1.342;2022-08-03T12:14:46;100063.80;;;24.76;38.69
67803;BME280;54601;51.378;-1.342;2022-08-03T12:17:12;100062.18;;;25.01;38.55
67803;BME280;54601;51.378;-1.342;2022-08-03T12:19:41;100063.11;;;25.48;38.11
67803;BME280;54601;51.378;-1.342;2022-08-03T12:22:03;100070.58;;;25.45;38.24
67803;BME280;54601;51.378;-1.342;2022-08-03T12:26:55;100065.47;;;25.28;38.56
67803;BME280;54601;51.378;-1.342;2022-08-03T12:29:21;100066.08;;;25.07;39.01
67803;BME280;54601;51.378;-1.342;2022-08-03T12:31:46;100068.77;;;25.18;38.32
67803;BME280;54601;51.378;-1.342;2022-08-03T12:34:11;100068.85;;;25.42;38.47
67803;BME280;54601;51.378;-1.342;2022-08-03T12:36:38;100066.11;;;25.50;38.23
67803;BME280;54601;51.378;-1.342;2022-08-03T12:39:05;100069.19;;;25.24;38.80
67803;BME280;54601;51.378;-1.342;2022-08-03T12:41:31;100067.75;;;24.87;38.70
67803;BME280;54601;51.378;-1.342;2022-08-03T12:43:56;100065.46;;;25.02;38.79
67803;BME280;54601;51.378;-1.342;2022-08-03T12:46:20;100063.95;;;25.34;38.62
67803;BME280;54601;51.378;-1.342;2022-08-03T12:51:11;100068.46;;;25.48;37.99
67803;BME280;54601;51.378;-1.342;2022-08-03T12:53:36;100074.07;;;25.75;38.01